Time;durP1;ratioP1;P1;durP2;ratioP2;P2;SDS_P1;SDS_P2;PMS_P1;PMS_P2;Temp;Humidity;BMP_temperature;BMP_pressure;BME280_temperature;BME280_humidity;BME280_pressure;Samples;Min_cycle;Max_cycle;Signal;HPM_P1;HPM_P2
2022/05/09 00:01:41;;;;;;;17.05;5.15;;;6.20;99.90;;;;;;5055877;28;20124;-70
2022/05/09 00:04:06;;;;;;;17.85;4.50;;;6.10;99.90;;;;;;5031971;28;20103;-71
2022/05/09 00:06:32;;;;;;;16.90;4.93;;;6.10;99.90;;;;;;5041517;28;20041;-71
2022/05/09 00:08:58;;;;;;;14.88;4.60;;;6.10;99.90;;;;;;5041811;28;20074;-71
2022/05/09 00:11:24;;;;;;;14.27;4.38;;;6.10;99.90;;;;;;5073890;28;20381;-71
2022/05/09 00:13:49;;;;;;;15.35;4.50;;;6.10;99.90;;;;;;5041097;28;20136;-71
2022/05/09 00:16:15;;;;;;;17.98;4.72;;;6.10;99.90;;;;;;5040999;28;20059;-70
2022/05/09 00:18:41;;;;;;;15.52;4.47;;;6.10;99.90;;;;;;5040673;28;20037;-71
2022/05/09 00:21:07;;;;;;;13.70;4.60;;;6.00;99.90;;;;;;5039400;28;20037;-70
2022/05/09 00:23:33;;;;;;;15.07;4.65;;;6.00;99.90;;;;;;5073259;28;20033;-71
2022/05/09 00:25:58;;;;;;;14.02;4.93;;;6.00;99.90;;;;;;5042191;28;20522;-71
2022/05/09 00:28:25;;;;;;;15.73;4.93;;;6.00;99.90;;;;;;5072602;28;20068;-71
2022/05/09 00:30:51;;;;;;;17.17;4.65;;;6.00;99.90;;;;;;5043725;28;20033;-71
2022/05/09 00:33:17;;;;;;;15.53;4.57;;;6.00;99.90;;;;;;5046120;28;20041;-70
2022/05/09 00:35:44;;;;;;;18.67;4.80;;;6.00;99.90;;;;;;5043304;28;20360;-71
2022/05/09 00:38:10;;;;;;;13.07;4.70;;;5.90;99.90;;;;;;5041143;28;20040;-71
2022/05/09 00:40:37;;;;;;;18.50;4.57;;;6.00;99.90;;;;;;5043255;28;20140;-71
2022/05/09 00:43:03;;;;;;;16.65;5.13;;;5.90;99.90;;;;;;5043363;28;20590;-72
2022/05/09 00:45:28;;;;;;;15.77;5.07;;;5.90;99.90;;;;;;5042957;28;20120;-71
2022/05/09 00:47:54;;;;;;;12.85;4.43;;;5.90;99.90;;;;;;5042235;28;20028;-71
2022/05/09 00:50:26;;;;;;;20.55;5.43;;;5.90;99.90;;;;;;5043028;28;20043;-70
2022/05/09 00:53:01;;;;;;;17.92;4.72;;;5.90;99.90;;;;;;5046492;28;20060;-72
2022/05/09 00:55:40;;;;;;;15.55;4.85;;;5.90;99.90;;;;;;5043898;28;20140;-71
2022/05/09 00:58:29;;;;;;;20.55;5.18;;;5.80;99.90;;;;;;5041191;28;20048;-70
2022/05/09 01:00:55;;;;;;;16.60;5.13;;;5.80;99.90;;;;;;5043861;28;20474;-70
2022/05/09 01:03:35;;;;;;;14.35;4.90;;;5.90;99.90;;;;;;5077701;28;20113;-70
2022/05/09 01:06:02;;;;;;;16.83;5.00;;;5.80;99.90;;;;;;5045443;28;20048;-70
2022/05/09 01:08:27;;;;;;;20.35;4.85;;;5.80;99.90;;;;;;5068847;28;20171;-71
2022/05/09 01:10:55;;;;;;;14.75;5.22;;;5.80;99.90;;;;;;5043199;28;20158;-70
2022/05/09 01:13:24;;;;;;;15.75;5.05;;;5.80;99.90;;;;;;5072509;28;20045;-70
2022/05/09 01:15:53;;;;;;;12.27;4.93;;;5.80;99.90;;;;;;5078071;28;20365;-70
2022/05/09 01:18:19;;;;;;;16.95;5.53;;;5.70;99.90;;;;;;5044942;28;20052;-71
2022/05/09 01:20:45;;;;;;;16.70;5.20;;;5.70;99.90;;;;;;5045084;28;20070;-71
2022/05/09 01:23:11;;;;;;;12.00;4.63;;;5.70;99.90;;;;;;5046580;28;20125;-70
2022/05/09 01:25:38;;;;;;;19.60;5.35;;;5.70;99.90;;;;;;5074932;28;20260;-70
2022/05/09 01:28:04;;;;;;;15.90;5.63;;;5.70;99.90;;;;;;5075357;28;20459;-70
2022/05/09 01:30:49;;;;;;;15.13;4.75;;;5.60;99.90;;;;;;5058302;28;20400;-70
2022/05/09 01:33:21;;;;;;;16.58;4.65;;;5.60;99.90;;;;;;5077891;28;20447;-70
2022/05/09 01:36:09;;;;;;;13.93;5.07;;;5.60;99.90;;;;;;5045953;28;20037;-70
2022/05/09 01:38:41;;;;;;;9.98;4.43;;;5.50;99.90;;;;;;5046250;28;20069;-70
2022/05/09 01:41:07;;;;;;;12.57;4.32;;;5.40;99.90;;;;;;5043116;28;20041;-70
2022/05/09 01:43:41;;;;;;;14.27;4.57;;;5.30;99.90;;;;;;5075627;28;20114;-70
2022/05/09 01:46:14;;;;;;;15.13;4.43;;;5.20;99.90;;;;;;5047294;28;20041;-70
2022/05/09 01:51:29;;;;;;;14.90;5.35;;;5.20;99.90;;;;;;5053591;28;20134;-70
2022/05/09 01:53:55;;;;;;;13.27;4.43;;;5.20;99.90;;;;;;5062203;28;20119;-70
2022/05/09 01:56:23;;;;;;;11.68;4.70;;;5.20;99.90;;;;;;5074593;28;20045;-70
2022/05/09 01:58:49;;;;;;;18.60;5.30;;;5.20;99.90;;;;;;5028906;28;20041;-70
2022/05/09 02:01:16;;;;;;;19.02;6.20;;;5.20;99.90;;;;;;5049010;28;20295;-71
2022/05/09 02:03:45;;;;;;;19.20;5.75;;;5.20;99.90;;;;;;5073732;28;20041;-70
2022/05/09 02:06:11;;;;;;;14.70;5.70;;;5.30;99.90;;;;;;5045897;28;20036;-70
2022/05/09 02:08:37;;;;;;;17.80;5.60;;;5.30;99.90;;;;;;5043405;28;20609;-70
2022/05/09 02:11:04;;;;;;;19.42;5.63;;;5.30;99.90;;;;;;5046141;28;20420;-70
2022/05/09 02:13:30;;;;;;;19.27;5.30;;;5.30;99.90;;;;;;5073843;28;20079;-70
2022/05/09 02:15:55;;;;;;;18.10;6.55;;;5.30;99.90;;;;;;5075616;28;20064;-70
2022/05/09 02:18:21;;;;;;;17.40;6.05;;;5.30;99.90;;;;;;5043101;28;20045;-70
2022/05/09 02:20:46;;;;;;;19.83;5.53;;;5.30;99.90;;;;;;5057724;28;20068;-70
2022/05/09 02:23:13;;;;;;;17.95;5.88;;;5.20;99.90;;;;;;5045366;28;20086;-70
2022/05/09 02:25:40;;;;;;;19.25;5.72;;;5.20;99.90;;;;;;5074434;28;20467;-70
2022/05/09 02:28:09;;;;;;;15.18;5.57;;;5.20;99.90;;;;;;5075910;28;20175;-70
2022/05/09 02:30:36;;;;;;;13.70;5.15;;;5.20;99.90;;;;;;5038617;28;20044;-70
2022/05/09 02:33:02;;;;;;;12.00;4.65;;;5.20;99.90;;;;;;5045957;28;20048;-70
2022/05/09 02:35:28;;;;;;;13.10;4.97;;;5.10;99.90;;;;;;5077689;28;20123;-70
2022/05/09 02:37:54;;;;;;;12.65;4.50;;;5.00;99.90;;;;;;5043379;28;20148;-70
2022/05/09 02:40:21;;;;;;;12.95;5.03;;;4.90;99.90;;;;;;5044353;28;20123;-70
2022/05/09 02:42:47;;;;;;;13.55;5.18;;;4.90;99.90;;;;;;5063338;28;20483;-70
2022/05/09 02:45:13;;;;;;;10.80;4.32;;;4.80;99.90;;;;;;5041769;28;20033;-70
2022/05/09 02:47:40;;;;;;;13.10;5.47;;;4.80;99.90;;;;;;5039743;28;20111;-70
2022/05/09 02:50:08;;;;;;;20.90;6.45;;;4.80;99.90;;;;;;5036933;28;20060;-70
2022/05/09 02:52:34;;;;;;;17.92;5.57;;;4.80;99.90;;;;;;5043796;28;20087;-70
2022/05/09 02:54:59;;;;;;;14.27;6.20;;;4.80;99.90;;;;;;5045462;28;20052;-70
2022/05/09 02:57:25;;;;;;;16.77;5.85;;;4.80;99.90;;;;;;5042024;28;20388;-70
2022/05/09 02:59:50;;;;;;;21.40;6.20;;;4.90;99.90;;;;;;5029217;28;20083;-70
2022/05/09 03:02:16;;;;;;;17.13;5.72;;;4.90;99.90;;;;;;5037899;28;20043;-70
2022/05/09 03:04:41;;;;;;;20.10;6.38;;;4.90;99.90;;;;;;5040887;28;20041;-70
2022/05/09 03:07:10;;;;;;;20.98;6.32;;;4.90;99.90;;;;;;5041573;28;20040;-70
2022/05/09 03:09:36;;;;;;;16.40;5.70;;;4.90;99.90;;;;;;5044902;28;21465;-70
2022/05/09 03:12:04;;;;;;;15.43;5.38;;;4.90;99.90;;;;;;5043440;28;20098;-70
2022/05/09 03:14:33;;;;;;;16.73;6.03;;;4.90;99.90;;;;;;5044821;28;20430;-70
2022/05/09 03:16:58;;;;;;;16.08;5.40;;;4.80;99.90;;;;;;5071642;28;20037;-70
2022/05/09 03:19:25;;;;;;;14.88;5.80;;;4.90;99.90;;;;;;5051284;28;20151;-70
2022/05/09 03:21:51;;;;;;;14.27;5.65;;;4.80;99.90;;;;;;5045902;28;20044;-70
2022/05/09 03:24:16;;;;;;;19.52;6.15;;;4.80;99.90;;;;;;5044879;28;20534;-70
2022/05/09 03:26:42;;;;;;;16.25;6.57;;;4.80;99.90;;;;;;5043356;28;20049;-70
2022/05/09 03:29:08;;;;;;;18.55;6.13;;;4.80;99.90;;;;;;5041383;28;20049;-70
2022/05/09 03:31:34;;;;;;;20.52;6.30;;;4.80;99.90;;;;;;5042538;28;20045;-70
2022/05/09 03:34:00;;;;;;;22.98;6.35;;;4.80;99.90;;;;;;5024132;28;20419;-70
2022/05/09 03:36:26;;;;;;;19.73;6.40;;;4.80;99.90;;;;;;5053728;28;20044;-70
2022/05/09 03:38:51;;;;;;;21.60;6.63;;;4.80;99.90;;;;;;5041149;28;20543;-70
2022/05/09 03:41:17;;;;;;;16.67;6.00;;;4.80;99.90;;;;;;5041036;28;20535;-70
2022/05/09 03:43:42;;;;;;;25.05;6.45;;;4.80;99.90;;;;;;5041089;28;20124;-70
2022/05/09 03:46:08;;;;;;;14.63;5.78;;;4.80;99.90;;;;;;5039300;28;20060;-70
2022/05/09 03:48:33;;;;;;;16.00;5.70;;;4.70;99.90;;;;;;5042396;28;20504;-70
2022/05/09 03:51:01;;;;;;;14.93;6.25;;;4.70;99.90;;;;;;5044506;28;20108;-70
2022/05/09 03:53:27;;;;;;;18.52;5.95;;;4.60;99.90;;;;;;5074719;28;20041;-70
2022/05/09 03:55:53;;;;;;;21.48;6.35;;;4.60;99.90;;;;;;5043829;28;20037;-70
2022/05/09 03:58:18;;;;;;;19.20;6.10;;;4.60;99.90;;;;;;5062058;28;20045;-70
2022/05/09 04:00:44;;;;;;;22.98;6.90;;;4.60;99.90;;;;;;5045851;28;20064;-70
2022/05/09 04:03:10;;;;;;;15.23;6.05;;;4.60;99.90;;;;;;5044912;28;20388;-70
2022/05/09 04:05:36;;;;;;;19.50;6.35;;;4.60;99.90;;;;;;5040370;28;20044;-70
2022/05/09 04:08:05;;;;;;;18.45;6.68;;;4.60;99.90;;;;;;5078644;28;20054;-70
2022/05/09 04:10:32;;;;;;;17.05;6.28;;;4.60;99.90;;;;;;5049067;28;20546;-70
2022/05/09 04:12:59;;;;;;;23.02;7.00;;;4.70;99.90;;;;;;5076652;28;20041;-70
2022/05/09 04:18:09;;;;;;;17.77;6.45;;;4.70;99.90;;;;;;5047340;28;20052;-70
2022/05/09 04:20:37;;;;;;;17.63;6.80;;;4.70;99.90;;;;;;5078639;28;20166;-70
2022/05/09 04:23:03;;;;;;;18.15;6.75;;;4.70;99.90;;;;;;5077054;28;20094;-70
2022/05/09 04:25:33;;;;;;;15.27;6.13;;;4.80;99.90;;;;;;5044902;28;20531;-70
2022/05/09 04:28:04;;;;;;;22.65;6.30;;;4.80;99.90;;;;;;5078752;28;20065;-70
2022/05/09 04:30:31;;;;;;;23.77;7.35;;;4.80;99.90;;;;;;5078289;28;20045;-70
2022/05/09 04:32:57;;;;;;;19.52;6.70;;;4.90;99.90;;;;;;5046540;28;20049;-70
2022/05/09 04:35:22;;;;;;;22.98;7.47;;;4.90;99.90;;;;;;5073431;28;20039;-71
2022/05/09 04:37:52;;;;;;;16.52;6.68;;;4.90;99.90;;;;;;5039732;28;20064;-70
2022/05/09 04:40:20;;;;;;;16.55;5.75;;;4.90;99.90;;;;;;5044511;28;20036;-70
2022/05/09 04:42:46;;;;;;;14.32;6.22;;;5.00;99.90;;;;;;5045831;28;20037;-70
2022/05/09 04:45:13;;;;;;;12.50;5.63;;;4.90;99.90;;;;;;5076797;28;20042;-70
2022/05/09 04:47:39;;;;;;;9.98;4.60;;;4.90;99.90;;;;;;5060306;28;20056;-70
2022/05/09 04:50:06;;;;;;;9.18;4.65;;;4.90;99.90;;;;;;5075177;28;20139;-70
2022/05/09 04:52:32;;;;;;;6.82;4.03;;;4.90;99.90;;;;;;5044925;28;20043;-71
2022/05/09 04:54:58;;;;;;;8.02;4.00;;;4.80;99.90;;;;;;5044355;28;20049;-70
2022/05/09 04:57:23;;;;;;;10.40;5.30;;;4.80;99.90;;;;;;5046469;28;20491;-70
2022/05/09 04:59:49;;;;;;;9.82;4.85;;;4.80;99.90;;;;;;5031230;28;20042;-70
2022/05/09 05:02:15;;;;;;;16.42;6.00;;;4.90;99.90;;;;;;5044421;28;20492;-70
2022/05/09 05:04:42;;;;;;;13.98;6.03;;;4.90;99.90;;;;;;5045437;28;20490;-71
2022/05/09 05:07:08;;;;;;;14.70;6.00;;;5.00;99.90;;;;;;5046655;28;20072;-70
2022/05/09 05:09:34;;;;;;;24.13;7.00;;;5.10;99.90;;;;;;5059946;28;20436;-71
2022/05/09 05:11:59;;;;;;;17.33;6.32;;;5.20;99.90;;;;;;5042640;28;20051;-71
2022/05/09 05:14:25;;;;;;;13.68;5.78;;;5.30;99.90;;;;;;5043588;28;20037;-71
2022/05/09 05:16:59;;;;;;;18.42;6.78;;;5.40;99.90;;;;;;5041958;28;20090;-71
2022/05/09 05:19:33;;;;;;;18.63;6.60;;;5.50;99.90;;;;;;5040978;28;20380;-71
2022/05/09 05:22:01;;;;;;;23.55;7.10;;;5.60;99.90;;;;;;5043390;28;20045;-73
2022/05/09 05:24:27;;;;;;;20.73;7.32;;;5.70;99.90;;;;;;5042565;28;20048;-71
2022/05/09 05:26:54;;;;;;;23.55;7.82;;;5.80;99.90;;;;;;5040990;28;20067;-72
2022/05/09 05:29:21;;;;;;;21.25;8.13;;;5.90;99.90;;;;;;5042597;28;20040;-74
2022/05/09 05:31:47;;;;;;;27.98;8.30;;;6.00;99.90;;;;;;5043449;28;20067;-71
2022/05/09 05:34:12;;;;;;;26.45;8.60;;;6.20;99.90;;;;;;5043984;28;20041;-71
2022/05/09 05:36:38;;;;;;;23.48;9.50;;;6.30;99.90;;;;;;5078616;28;20041;-71
2022/05/09 05:39:03;;;;;;;28.02;8.68;;;6.40;99.90;;;;;;5075424;28;20036;-71
2022/05/09 05:41:31;;;;;;;26.02;8.82;;;6.50;99.90;;;;;;5044801;28;20115;-71
2022/05/09 05:43:57;;;;;;;24.98;8.88;;;6.70;99.90;;;;;;5046090;28;20581;-71
2022/05/09 05:46:23;;;;;;;24.55;9.30;;;6.80;99.90;;;;;;5031835;28;20119;-71
2022/05/09 05:48:49;;;;;;;25.15;9.55;;;6.90;99.90;;;;;;5049343;28;20123;-72
2022/05/09 05:51:18;;;;;;;27.60;9.88;;;7.10;99.90;;;;;;5032618;28;20516;-70
2022/05/09 05:53:44;;;;;;;27.10;9.77;;;7.20;99.90;;;;;;5047260;28;20052;-72
2022/05/09 05:56:09;;;;;;;32.22;9.63;;;7.30;99.90;;;;;;5049845;28;20036;-71
2022/05/09 05:58:35;;;;;;;26.42;10.00;;;7.40;99.90;;;;;;5045834;28;20412;-71
2022/05/09 06:01:00;;;;;;;28.20;9.93;;;7.60;99.90;;;;;;5049824;28;20036;-71
2022/05/09 06:03:26;;;;;;;36.85;10.07;;;7.80;99.90;;;;;;5076170;28;20048;-71
2022/05/09 06:05:51;;;;;;;24.95;9.30;;;8.00;99.90;;;;;;5050368;28;20045;-71
2022/05/09 06:08:17;;;;;;;29.92;9.57;;;8.10;99.90;;;;;;5050803;28;20045;-72
2022/05/09 06:10:42;;;;;;;27.85;9.70;;;8.30;99.90;;;;;;5048788;28;20040;-73
2022/05/09 06:13:08;;;;;;;23.65;8.90;;;8.40;99.90;;;;;;5064448;28;20087;-71
2022/05/09 06:15:36;;;;;;;31.13;9.55;;;8.60;99.90;;;;;;5047585;28;20595;-71
2022/05/09 06:18:04;;;;;;;34.80;10.13;;;8.70;99.90;;;;;;5048727;28;20037;-71
2022/05/09 06:20:34;;;;;;;36.20;10.30;;;8.90;99.90;;;;;;5041717;28;20044;-73
2022/05/09 06:23:01;;;;;;;28.00;9.65;;;9.10;99.90;;;;;;5041590;28;20130;-71
2022/05/09 06:25:28;;;;;;;30.45;9.93;;;9.20;99.90;;;;;;5043645;28;20056;-72
2022/05/09 06:27:54;;;;;;;26.88;10.00;;;9.40;99.90;;;;;;5071975;28;20530;-71
2022/05/09 06:30:22;;;;;;;27.70;9.52;;;9.50;99.90;;;;;;5025492;28;20536;-71
2022/05/09 06:32:48;;;;;;;27.17;9.63;;;9.60;99.90;;;;;;5075904;28;21203;-71
2022/05/09 06:35:20;;;;;;;28.98;9.90;;;9.80;99.90;;;;;;5041204;28;20095;-71
2022/05/09 06:37:47;;;;;;;35.63;10.32;;;9.90;99.90;;;;;;5042174;28;20083;-72
2022/05/09 06:40:13;;;;;;;22.20;8.70;;;10.10;99.90;;;;;;5039946;28;20059;-71
2022/05/09 06:42:39;;;;;;;35.47;10.15;;;10.20;99.90;;;;;;5042696;28;20072;-70
2022/05/09 06:45:06;;;;;;;35.92;10.32;;;10.40;99.90;;;;;;5044467;28;20043;-70
2022/05/09 06:47:31;;;;;;;23.52;9.60;;;10.60;99.90;;;;;;5043957;28;20143;-71
2022/05/09 06:50:02;;;;;;;27.05;10.20;;;10.70;99.90;;;;;;5078149;28;20127;-72
2022/05/09 06:52:28;;;;;;;32.75;9.93;;;10.80;99.90;;;;;;5046098;28;20118;-70
2022/05/09 06:54:53;;;;;;;30.42;10.18;;;11.00;99.90;;;;;;5046314;28;20098;-72
2022/05/09 06:57:19;;;;;;;28.75;9.07;;;11.20;99.90;;;;;;5048847;28;20118;-72
2022/05/09 06:59:47;;;;;;;27.13;10.02;;;11.20;99.90;;;;;;5048535;28;20353;-71
2022/05/09 07:02:13;;;;;;;29.88;9.23;;;11.40;99.90;;;;;;5048370;28;20507;-71
2022/05/09 07:04:39;;;;;;;27.98;9.10;;;11.60;99.90;;;;;;5049928;28;20040;-71
2022/05/09 07:07:05;;;;;;;33.38;9.00;;;11.70;99.90;;;;;;5069264;28;20056;-71
2022/05/09 07:09:31;;;;;;;25.50;9.50;;;11.90;99.90;;;;;;5059683;28;20047;-70
2022/05/09 07:11:56;;;;;;;26.83;8.82;;;12.00;99.90;;;;;;5049176;28;20040;-71
2022/05/09 07:14:22;;;;;;;27.30;9.57;;;12.20;99.90;;;;;;5049003;28;20041;-73
2022/05/09 07:16:47;;;;;;;22.27;8.88;;;12.30;99.90;;;;;;5048042;28;20040;-71
2022/05/09 07:19:14;;;;;;;26.90;8.98;;;12.40;99.90;;;;;;5041179;28;20132;-71
2022/05/09 07:21:39;;;;;;;31.50;9.57;;;12.50;99.90;;;;;;5029156;28;20479;-71
2022/05/09 07:24:06;;;;;;;23.58;8.15;;;12.70;99.90;;;;;;5044861;28;20055;-71
2022/05/09 07:26:32;;;;;;;29.42;8.45;;;12.80;99.90;;;;;;5029113;28;20049;-71
2022/05/09 07:28:58;;;;;;;18.77;8.82;;;12.90;99.90;;;;;;5028246;28;20111;-73
2022/05/09 07:31:24;;;;;;;26.13;9.43;;;13.10;99.90;;;;;;5028400;28;20045;-73
2022/05/09 07:33:49;;;;;;;21.25;8.85;;;13.20;99.90;;;;;;5012344;28;20045;-71
2022/05/09 07:36:15;;;;;;;25.95;8.35;;;13.30;99.90;;;;;;5029131;28;20403;-71
2022/05/09 07:38:42;;;;;;;23.73;8.70;;;13.50;99.90;;;;;;5028196;28;20033;-73
2022/05/09 07:41:07;;;;;;;22.63;8.45;;;13.60;99.90;;;;;;5027768;28;20041;-71
2022/05/09 07:43:33;;;;;;;26.27;8.32;;;13.70;99.90;;;;;;5028545;28;20546;-74
2022/05/09 07:45:59;;;;;;;27.30;9.43;;;13.80;99.90;;;;;;5028771;28;20075;-72
2022/05/09 07:48:27;;;;;;;23.25;8.60;;;13.90;99.90;;;;;;5038392;28;20071;-72
2022/05/09 07:50:55;;;;;;;25.33;9.60;;;14.00;99.90;;;;;;5071636;28;20052;-73
2022/05/09 07:53:26;;;;;;;24.08;8.50;;;14.10;99.90;;;;;;5048727;28;20055;-73
2022/05/09 07:55:52;;;;;;;24.90;8.47;;;14.20;99.90;;;;;;5065225;28;20424;-72
2022/05/09 07:58:18;;;;;;;23.30;8.45;;;14.30;99.90;;;;;;5065350;28;20037;-72
2022/05/09 08:00:45;;;;;;;26.48;8.30;;;14.40;99.90;;;;;;5080477;28;20532;-73
2022/05/09 08:03:31;;;;;;;24.00;8.80;;;14.60;99.90;;;;;;5044749;28;20488;-72
2022/05/09 08:06:02;;;;;;;22.90;7.78;;;14.70;99.90;;;;;;5046654;28;20051;-72
2022/05/09 08:08:28;;;;;;;20.52;7.50;;;14.80;99.90;;;;;;5048451;28;20052;-72
2022/05/09 08:10:56;;;;;;;23.40;7.88;;;14.90;99.90;;;;;;5047728;28;20036;-73
2022/05/09 08:13:22;;;;;;;31.98;7.97;;;14.90;99.90;;;;;;5031627;28;20076;-71
2022/05/09 08:15:48;;;;;;;25.17;7.57;;;15.00;99.90;;;;;;5047682;28;20437;-72
2022/05/09 08:18:14;;;;;;;20.85;7.38;;;15.10;99.90;;;;;;5061270;28;20120;-71
2022/05/09 08:20:44;;;;;;;22.17;7.53;;;15.30;99.90;;;;;;5066731;28;20879;-71
2022/05/09 08:23:13;;;;;;;19.27;7.13;;;15.40;99.90;;;;;;5048094;28;20041;-72
2022/05/09 08:25:42;;;;;;;21.17;7.18;;;15.60;99.90;;;;;;5048210;28;20049;-71
2022/05/09 08:28:08;;;;;;;23.83;6.88;;;15.70;99.90;;;;;;5047875;28;20044;-72
2022/05/09 08:30:35;;;;;;;24.10;6.53;;;15.80;99.90;;;;;;5047167;28;20179;-72
2022/05/09 08:33:03;;;;;;;15.85;6.50;;;15.90;99.90;;;;;;5047972;28;20083;-73
2022/05/09 08:35:29;;;;;;;19.27;6.35;;;16.00;99.90;;;;;;5047951;28;20427;-71
2022/05/09 08:37:54;;;;;;;18.25;5.90;;;16.10;99.90;;;;;;5044037;28;20033;-72
2022/05/09 08:40:32;;;;;;;17.30;5.95;;;16.30;99.90;;;;;;5047392;28;20041;-71
2022/05/09 08:43:16;;;;;;;24.90;6.38;;;16.40;99.90;;;;;;5043607;28;20498;-74
2022/05/09 08:45:52;;;;;;;19.08;5.75;;;16.60;99.90;;;;;;5061520;28;20111;-73
2022/05/09 08:48:34;;;;;;;16.02;5.00;;;16.70;99.90;;;;;;5032674;28;20041;-71
2022/05/09 08:51:12;;;;;;;15.95;5.57;;;16.70;99.90;;;;;;5061006;28;20049;-71
2022/05/09 08:53:41;;;;;;;16.88;5.78;;;16.80;99.90;;;;;;5030948;28;20041;-72
2022/05/09 08:56:12;;;;;;;22.77;5.65;;;16.90;99.90;;;;;;5045638;28;20025;-72
2022/05/09 08:58:57;;;;;;;18.58;5.18;;;17.00;99.90;;;;;;5050796;28;20037;-71
2022/05/09 09:01:38;;;;;;;15.73;5.43;;;17.10;99.90;;;;;;5050973;28;20142;-72
2022/05/09 09:04:19;;;;;;;15.38;5.00;;;17.20;99.90;;;;;;5051300;28;20048;-72
2022/05/09 09:07:28;;;;;;;16.58;4.80;;;17.30;99.90;;;;;;5051283;28;20033;-72
2022/05/09 09:10:27;;;;;;;19.60;4.78;;;17.40;99.90;;;;;;5040035;28;20049;-71
2022/05/09 09:13:28;;;;;;;13.88;4.53;;;17.50;99.90;;;;;;5041542;28;20454;-72
2022/05/09 09:16:31;;;;;;;18.83;4.45;;;17.60;99.40;;;;;;5045945;28;20038;-71
2022/05/09 09:18:56;;;;;;;16.42;4.60;;;17.70;97.40;;;;;;5047727;28;20071;-72
2022/05/09 09:21:42;;;;;;;14.45;4.90;;;17.70;99.90;;;;;;5045900;28;20103;-72
2022/05/09 09:24:11;;;;;;;15.13;4.85;;;17.80;99.20;;;;;;5044737;28;20037;-71
2022/05/09 09:26:57;;;;;;;13.73;5.15;;;17.90;99.90;;;;;;5048500;28;20063;-72
2022/05/09 09:29:34;;;;;;;15.15;4.50;;;17.80;95.90;;;;;;5041407;28;20041;-72
2022/05/09 09:32:21;;;;;;;21.45;5.25;;;17.90;95.30;;;;;;5050939;28;20499;-72
2022/05/09 09:35:01;;;;;;;16.00;4.97;;;18.10;99.90;;;;;;5051274;28;20071;-72
2022/05/09 09:37:39;;;;;;;17.73;4.63;;;18.20;99.90;;;;;;5050716;28;20036;-72
2022/05/09 09:40:06;;;;;;;15.80;4.82;;;18.30;98.10;;;;;;5056631;28;20037;-71
2022/05/09 09:42:32;;;;;;;16.20;5.20;;;18.40;98.70;;;;;;5046457;28;20029;-72
2022/05/09 09:44:58;;;;;;;14.23;4.80;;;18.50;99.90;;;;;;5052560;28;20040;-72
2022/05/09 09:47:26;;;;;;;13.63;4.00;;;18.60;99.90;;;;;;5051079;28;20519;-74
2022/05/09 09:50:22;;;;;;;9.57;3.13;;;18.80;98.30;;;;;;5048537;28;20045;-73
2022/05/09 09:52:52;;;;;;;11.18;4.90;;;18.90;94.40;;;;;;5068362;28;20570;-72
2022/05/09 09:55:34;;;;;;;12.30;3.83;;;18.90;80.10;;;;;;5084747;28;20055;-73
2022/05/09 09:58:19;;;;;;;11.65;3.65;;;18.90;91.60;;;;;;5050433;28;20045;-71
2022/05/09 10:00:45;;;;;;;10.10;3.60;;;19.00;84.10;;;;;;5033908;28;20095;-72
2022/05/09 10:03:26;;;;;;;13.93;4.10;;;19.00;73.60;;;;;;5050072;28;20499;-72
2022/05/09 10:05:54;;;;;;;13.47;3.97;;;19.00;78.90;;;;;;5084382;28;20128;-72
2022/05/09 10:08:36;;;;;;;9.45;4.10;;;19.00;75.00;;;;;;5050814;28;20068;-72
2022/05/09 10:11:08;;;;;;;12.43;3.80;;;19.10;62.60;;;;;;5050626;28;20091;-73
2022/05/09 10:13:45;;;;;;;14.50;4.30;;;19.20;89.10;;;;;;5049600;28;20487;-72
2022/05/09 10:16:35;;;;;;;13.50;4.30;;;19.30;87.10;;;;;;5050263;28;20124;-72
2022/05/09 10:19:03;;;;;;;13.15;3.83;;;19.40;93.50;;;;;;5049426;28;20041;-74
2022/05/09 10:27:20;;;;;;;12.20;4.53;;;19.40;86.70;;;;;;5050858;28;20122;-74
2022/05/09 10:29:48;;;;;;;12.80;4.50;;;19.40;89.30;;;;;;5049233;28;20056;-73
2022/05/09 10:32:19;;;;;;;12.10;3.83;;;19.40;91.90;;;;;;5086936;28;20032;-72
2022/05/09 10:34:55;;;;;;;9.23;3.60;;;19.50;79.40;;;;;;5046283;28;20045;-73
2022/05/09 10:37:30;;;;;;;11.90;4.28;;;19.50;74.70;;;;;;5030547;28;20132;-73
2022/05/09 10:40:02;;;;;;;12.15;4.22;;;19.70;79.50;;;;;;5071006;28;20037;-74
2022/05/09 10:42:46;;;;;;;14.85;5.25;;;19.90;89.30;;;;;;5066193;28;20542;-76
2022/05/09 10:45:24;;;;;;;12.80;4.28;;;20.00;90.80;;;;;;5050671;28;20056;-73
2022/05/09 10:47:56;;;;;;;11.98;3.90;;;20.00;60.80;;;;;;5049052;28;20454;-73
2022/05/09 10:50:27;;;;;;;10.40;3.72;;;19.90;59.60;;;;;;5083383;28;20037;-74
2022/05/09 10:53:06;;;;;;;10.90;3.73;;;19.90;73.40;;;;;;5083583;28;20045;-73
2022/05/09 10:55:51;;;;;;;14.98;3.83;;;20.00;73.40;;;;;;5049354;28;20484;-74
2022/05/09 10:58:33;;;;;;;14.55;4.43;;;20.20;82.90;;;;;;5050163;28;20041;-76
2022/05/09 11:01:11;;;;;;;10.82;3.92;;;20.40;74.00;;;;;;5048874;28;20047;-72
2022/05/09 11:03:41;;;;;;;14.05;4.07;;;20.40;74.30;;;;;;5049099;28;20048;-73
2022/05/09 11:06:13;;;;;;;14.73;4.63;;;20.40;67.80;;;;;;5050003;28;20044;-71
2022/05/09 11:09:20;;;;;;;12.10;4.77;;;20.40;91.80;;;;;;5032595;28;20086;-73
2022/05/09 11:12:09;;;;;;;13.07;4.32;;;20.40;68.20;;;;;;5048515;28;20421;-72
2022/05/09 11:14:34;;;;;;;13.27;4.78;;;20.40;81.40;;;;;;5032580;28;20424;-70
2022/05/09 11:17:29;;;;;;;11.30;3.95;;;20.40;91.00;;;;;;5027975;28;20041;-72
2022/05/09 11:20:07;;;;;;;12.75;4.00;;;20.40;74.00;;;;;;5029071;28;20128;-73
2022/05/09 11:22:38;;;;;;;13.50;3.83;;;20.50;68.60;;;;;;5027959;28;20051;-73
2022/05/09 11:25:32;;;;;;;9.20;4.03;;;20.40;63.80;;;;;;5073587;28;20049;-72
2022/05/09 11:28:19;;;;;;;9.65;3.85;;;20.60;75.00;;;;;;5050171;28;20053;-71
2022/05/09 11:30:53;;;;;;;14.40;4.30;;;20.80;88.50;;;;;;5048932;28;20040;-73
2022/05/09 11:33:34;;;;;;;10.82;3.63;;;20.90;95.50;;;;;;5031442;28;20056;-71
2022/05/09 11:36:44;;;;;;;12.98;4.15;;;21.10;92.50;;;;;;5049468;28;20045;-73
2022/05/09 11:39:39;;;;;;;13.73;5.18;;;21.10;78.40;;;;;;5040680;28;20041;-73
2022/05/09 11:45:51;;;;;;;9.65;3.97;;;21.10;74.20;;;;;;5029443;28;20099;-72
2022/05/09 11:48:19;;;;;;;13.25;4.25;;;21.10;86.90;;;;;;5027817;28;20057;-72
2022/05/09 11:51:04;;;;;;;7.40;4.43;;;21.00;78.20;;;;;;5044475;28;20045;-70
2022/05/09 11:53:35;;;;;;;11.38;4.47;;;21.00;64.30;;;;;;5049490;28;20044;-71
2022/05/09 11:56:05;;;;;;;12.52;4.55;;;21.00;65.00;;;;;;5049182;28;20087;-71
2022/05/09 11:58:34;;;;;;;11.00;4.20;;;21.00;91.10;;;;;;5047796;28;20045;-72
2022/05/09 12:01:00;;;;;;;10.60;3.88;;;21.00;64.90;;;;;;5081887;28;20514;-71
2022/05/09 12:03:40;;;;;;;13.00;3.70;;;21.00;70.50;;;;;;5048791;28;20041;-72
2022/05/09 12:06:27;;;;;;;15.27;4.20;;;21.20;74.70;;;;;;5048432;28;20041;-71
2022/05/09 12:08:53;;;;;;;11.32;4.30;;;21.20;67.70;;;;;;5063757;28;20044;-73
2022/05/09 12:11:46;;;;;;;10.93;4.45;;;21.30;59.90;;;;;;5046797;28;20442;-72
2022/05/09 12:14:38;;;;;;;13.00;3.83;;;21.30;58.60;;;;;;5047712;28;20071;-71
2022/05/09 12:17:21;;;;;;;9.68;3.88;;;21.30;68.00;;;;;;5049567;28;20057;-73
2022/05/09 12:19:46;;;;;;;;;;;21.40;57.70;;;;;;5047656;28;20171;-72
2022/05/09 12:22:33;;;;;;;10.93;3.70;;;21.40;85.50;;;;;;5047167;28;20015;-73
2022/05/09 12:24:59;;;;;;;12.35;5.22;;;21.40;62.70;;;;;;5028992;28;20409;-72
2022/05/09 12:27:58;;;;;;;8.57;3.53;;;21.60;94.30;;;;;;5044384;28;20428;-72
2022/05/09 12:30:56;;;;;;;12.18;3.85;;;21.90;92.40;;;;;;5034908;28;20120;-73
2022/05/09 12:33:48;;;;;;;16.30;4.10;;;22.00;76.30;;;;;;5051712;28;20080;-73
2022/05/09 12:36:14;;;;;;;18.17;4.00;;;22.10;64.30;;;;;;5051716;28;20517;-73
2022/05/09 12:38:43;;;;;;;9.65;4.00;;;22.00;56.70;;;;;;5049412;28;20045;-72
2022/05/09 12:41:15;;;;;;;10.80;4.00;;;22.00;61.10;;;;;;5035531;28;20452;-73
2022/05/09 12:43:58;;;;;;;15.50;4.18;;;21.90;54.40;;;;;;5035067;28;20052;-74
2022/05/09 12:46:25;;;;;;;11.95;4.03;;;21.90;62.60;;;;;;5049925;28;20051;-72
2022/05/09 12:48:54;;;;;;;7.90;3.45;;;22.00;61.30;;;;;;5050923;28;20067;-73
2022/05/09 12:51:21;;;;;;;10.02;3.65;;;22.00;61.40;;;;;;5049532;28;20067;-72
2022/05/09 12:53:47;;;;;;;11.20;3.67;;;22.20;82.10;;;;;;5070322;28;20044;-75
2022/05/09 12:56:17;;;;;;;9.15;3.60;;;22.30;66.00;;;;;;5033335;28;20127;-72
2022/05/09 12:58:45;;;;;;;9.32;3.60;;;22.30;61.00;;;;;;5064320;28;20034;-73
2022/05/09 13:01:13;;;;;;;10.35;3.80;;;22.40;68.40;;;;;;5032004;28;20073;-72
2022/05/09 13:03:52;;;;;;;9.38;3.95;;;22.30;57.00;;;;;;5047217;28;20041;-72
2022/05/09 13:06:21;;;;;;;13.63;4.00;;;22.20;52.30;;;;;;5079422;28;20468;-74
2022/05/09 13:08:48;;;;;;;9.02;3.45;;;22.20;54.60;;;;;;5052264;28;20037;-73
2022/05/09 13:11:27;;;;;;;9.23;4.32;;;22.10;56.00;;;;;;5053810;28;20684;-73
2022/05/09 13:14:07;;;;;;;10.50;3.75;;;22.10;53.90;;;;;;5082493;28;20040;-72
2022/05/09 13:16:36;;;;;;;11.05;3.45;;;22.00;52.40;;;;;;5050840;28;20041;-70